createdAt,value
2019-03-18T00:00:56.554Z,10.57
2019-03-18T00:03:27.365Z,11.40
2019-03-18T00:05:57.440Z,15.03
2019-03-18T00:08:27.467Z,5.47
2019-03-18T00:10:57.481Z,7.23
2019-03-18T00:13:30.660Z,5.00
2019-03-18T00:16:00.790Z,4.67
2019-03-18T00:18:30.771Z,2.90
2019-03-18T00:21:01.243Z,4.83
2019-03-18T00:23:31.212Z,3.37
2019-03-18T00:26:01.226Z,3.00
2019-03-18T00:28:31.203Z,2.73
2019-03-18T00:31:01.638Z,3.80
2019-03-18T00:33:31.598Z,4.80
2019-03-18T00:36:01.576Z,3.03
2019-03-18T00:38:31.554Z,1.10
2019-03-18T00:41:01.594Z,4.20
2019-03-18T00:43:31.560Z,2.70
2019-03-18T00:46:01.575Z,4.43
2019-03-18T00:48:31.692Z,3.43
2019-03-18T00:51:01.644Z,4.87
2019-03-18T00:53:31.656Z,3.63
2019-03-18T00:56:01.693Z,3.13
2019-03-18T00:58:31.769Z,1.83
2019-03-18T01:01:01.760Z,3.47
2019-03-18T01:03:32.009Z,6.73
2019-03-18T01:06:01.956Z,1.80
2019-03-18T01:08:32.689Z,1.17
2019-03-18T01:11:02.669Z,5.90
2019-03-18T01:13:32.663Z,9.07
2019-03-18T01:16:03.178Z,2.50
2019-03-18T01:18:33.166Z,3.97
2019-03-18T01:21:03.146Z,2.63
2019-03-18T01:23:33.177Z,8.90
2019-03-18T01:26:03.248Z,1.63
2019-03-18T01:28:33.245Z,4.93
2019-03-18T01:31:03.201Z,1.50
2019-03-18T01:33:33.524Z,2.97
2019-03-18T01:36:03.640Z,1.93
2019-03-18T01:38:33.672Z,3.57
2019-03-18T01:41:03.631Z,5.63
2019-03-18T01:43:33.645Z,2.40
2019-03-18T01:46:03.791Z,11.83
2019-03-18T01:48:33.785Z,1.47
2019-03-18T01:51:03.760Z,2.07
2019-03-18T01:53:33.970Z,8.20
2019-03-18T01:56:03.949Z,4.03
2019-03-18T01:58:33.928Z,2.03
2019-03-18T02:01:04.500Z,2.13
2019-03-18T02:03:34.462Z,1.83
2019-03-18T02:06:04.758Z,2.07
2019-03-18T02:08:34.751Z,5.03
2019-03-18T02:11:04.803Z,2.50
2019-03-18T02:13:35.111Z,2.63
2019-03-18T02:16:05.101Z,2.40
2019-03-18T02:18:35.121Z,13.00
2019-03-18T02:21:05.290Z,2.30
2019-03-18T02:23:36.028Z,3.33
2019-03-18T02:26:06.276Z,2.60
2019-03-18T02:28:36.286Z,12.10
2019-03-18T02:31:06.458Z,1.20
2019-03-18T02:33:36.621Z,3.50
2019-03-18T02:36:06.821Z,2.40
2019-03-18T02:38:37.013Z,3.80
2019-03-18T02:41:06.997Z,4.73
2019-03-18T02:43:37.090Z,1.93
2019-03-18T02:46:10.525Z,1.53
2019-03-18T02:48:38.678Z,5.03
2019-03-18T02:51:08.739Z,1.97
2019-03-18T02:53:38.950Z,3.53
2019-03-18T02:56:08.899Z,3.40
2019-03-18T02:58:38.988Z,3.40
2019-03-18T03:01:08.999Z,1.63
2019-03-18T03:03:39.229Z,6.60
2019-03-18T03:06:09.461Z,2.83
2019-03-18T03:08:39.566Z,1.57
2019-03-18T03:11:09.538Z,1.20
2019-03-18T03:13:40.120Z,1.33
2019-03-18T03:16:20.387Z,3.43
2019-03-18T03:18:41.947Z,4.73
2019-03-18T03:21:13.267Z,1.90
2019-03-18T03:23:43.807Z,2.43
2019-03-18T03:26:13.835Z,1.97
2019-03-18T03:28:43.847Z,6.20
2019-03-18T03:31:14.193Z,2.80
2019-03-18T03:33:44.356Z,7.67
2019-03-18T03:36:14.917Z,2.30
2019-03-18T03:38:44.954Z,3.10
2019-03-18T03:41:17.881Z,5.33
2019-03-18T03:43:47.269Z,3.07
2019-03-18T03:46:17.930Z,2.47
2019-03-18T03:48:48.113Z,4.63
2019-03-18T03:51:18.212Z,2.90
2019-03-18T03:53:48.281Z,3.50
2019-03-18T03:56:18.681Z,3.33
2019-03-18T03:58:48.862Z,4.00
2019-03-18T04:01:19.362Z,3.90
2019-03-18T04:03:49.473Z,2.80
2019-03-18T04:06:19.666Z,54.77
2019-03-18T04:08:49.806Z,15.57
2019-03-18T04:11:19.806Z,10.77
2019-03-18T04:13:50.076Z,1.77
2019-03-18T04:16:20.325Z,3.47
2019-03-18T04:18:50.565Z,1.87
2019-03-18T04:21:20.799Z,8.63
2019-03-18T04:23:50.994Z,10.67
2019-03-18T04:26:20.940Z,9.53
2019-03-18T04:28:51.209Z,1.40
2019-03-18T04:31:21.186Z,5.03
2019-03-18T04:33:51.206Z,11.67
2019-03-18T04:36:21.191Z,9.73
2019-03-18T04:38:51.210Z,3.90
2019-03-18T04:41:21.209Z,1.00
2019-03-18T04:43:51.201Z,1.77
2019-03-18T04:46:21.193Z,3.77
2019-03-18T04:48:51.437Z,7.70
2019-03-18T04:51:21.414Z,2.50
2019-03-18T04:53:51.360Z,5.13
2019-03-18T04:56:21.330Z,2.67
2019-03-18T04:58:51.312Z,1.60
2019-03-18T05:01:21.352Z,31.00
2019-03-18T05:03:51.340Z,52.63
2019-03-18T05:06:21.465Z,59.27
2019-03-18T05:08:51.408Z,8.30
2019-03-18T05:11:21.388Z,13.73
2019-03-18T05:13:51.431Z,31.87
2019-03-18T05:16:21.805Z,4.90
2019-03-18T05:18:51.845Z,21.70
2019-03-18T05:21:21.893Z,21.63
2019-03-18T05:23:51.858Z,15.57
2019-03-18T05:26:22.514Z,17.47
2019-03-18T05:28:52.593Z,11.83
2019-03-18T05:31:22.658Z,12.83
2019-03-18T05:33:52.804Z,41.37
2019-03-18T05:36:22.813Z,24.13
2019-03-18T05:38:53.230Z,59.57
2019-03-18T05:41:23.297Z,30.10
2019-03-18T05:43:53.456Z,12.23
2019-03-18T05:46:23.548Z,18.77
2019-03-18T05:48:53.910Z,18.07
2019-03-18T05:51:23.897Z,18.70
2019-03-18T05:53:53.853Z,39.30
2019-03-18T05:56:23.864Z,35.13
2019-03-18T05:58:53.936Z,22.93
2019-03-18T06:01:23.939Z,28.03
2019-03-18T06:03:53.937Z,34.47
2019-03-18T06:06:23.909Z,48.40
2019-03-18T06:08:54.049Z,29.70
2019-03-18T06:11:24.037Z,49.13
2019-03-18T06:13:56.509Z,33.43
2019-03-18T06:16:26.289Z,30.87
2019-03-18T06:18:56.280Z,37.07
2019-03-18T06:21:26.291Z,56.77
2019-03-18T06:23:56.433Z,59.10
2019-03-18T06:26:26.429Z,55.17
2019-03-18T06:28:56.445Z,51.53
2019-03-18T06:31:26.785Z,43.03
2019-03-18T06:33:56.849Z,22.00
2019-03-18T06:36:26.857Z,26.97
2019-03-18T06:38:57.145Z,41.77
2019-03-18T06:41:27.321Z,24.67
2019-03-18T06:43:57.577Z,22.53
2019-03-18T06:46:27.564Z,57.43
2019-03-18T06:48:57.581Z,66.47
2019-03-18T06:51:27.593Z,34.70
2019-03-18T06:53:58.150Z,32.43
2019-03-18T06:56:28.692Z,11.67
2019-03-18T06:58:58.737Z,49.40
2019-03-18T07:01:28.742Z,35.50
2019-03-18T07:03:58.698Z,20.83
2019-03-18T07:06:28.709Z,42.13
2019-03-18T07:08:58.838Z,20.77
2019-03-18T07:11:29.396Z,18.00
2019-03-18T07:13:59.406Z,9.90
2019-03-18T07:16:29.383Z,18.57
2019-03-18T07:19:10.631Z,24.23
2019-03-18T07:21:41.252Z,22.43
2019-03-18T07:24:11.153Z,19.47
2019-03-18T07:26:41.724Z,39.33
2019-03-18T07:29:11.812Z,43.80
2019-03-18T07:31:41.976Z,27.57
2019-03-18T07:34:11.993Z,24.07
2019-03-18T07:36:41.994Z,54.87
2019-03-18T07:39:11.976Z,45.30
2019-03-18T07:41:42.118Z,53.60
2019-03-18T07:44:12.109Z,110.90
2019-03-18T07:46:42.125Z,88.97
2019-03-18T07:49:12.171Z,51.90
2019-03-18T07:51:42.177Z,38.63
2019-03-18T07:54:12.125Z,17.93
2019-03-18T07:56:42.209Z,27.47
2019-03-18T07:59:12.188Z,31.77
2019-03-18T08:01:42.132Z,6.47
2019-03-18T08:04:12.251Z,34.90
2019-03-18T08:06:42.167Z,25.87
2019-03-18T08:09:12.609Z,10.20
2019-03-18T08:11:42.733Z,25.03
2019-03-18T08:14:15.849Z,3.70
2019-03-18T08:16:45.038Z,11.33
2019-03-18T08:19:15.031Z,9.30
2019-03-18T08:21:44.997Z,15.83
2019-03-18T08:24:15.420Z,9.23
2019-03-18T08:26:45.356Z,12.13
2019-03-18T08:29:15.376Z,10.33
2019-03-18T08:31:45.360Z,13.23
2019-03-18T08:34:15.816Z,19.50
2019-03-18T08:36:45.785Z,23.57
2019-03-18T08:39:16.348Z,7.93
2019-03-18T08:41:46.849Z,8.27
2019-03-18T08:44:16.873Z,17.63
2019-03-18T08:46:47.836Z,28.03
2019-03-18T08:49:17.873Z,4.10
2019-03-18T08:51:47.869Z,11.97
2019-03-18T08:54:18.040Z,20.93
2019-03-18T08:56:48.561Z,6.37
2019-03-18T08:59:18.728Z,12.57
2019-03-18T09:01:49.960Z,23.77
2019-03-18T09:04:19.980Z,25.23
2019-03-18T09:06:50.506Z,18.63
2019-03-18T09:09:20.518Z,8.57
2019-03-18T09:11:50.537Z,14.93
2019-03-18T09:14:20.849Z,17.30
2019-03-18T09:16:50.841Z,17.70
2019-03-18T09:19:20.900Z,17.80
2019-03-18T09:21:51.118Z,13.73
2019-03-18T09:24:21.333Z,15.90
2019-03-18T09:27:02.024Z,14.30
2019-03-18T09:29:23.469Z,11.70
2019-03-18T09:31:53.581Z,14.27
2019-03-18T09:34:23.603Z,20.67
2019-03-18T09:36:53.729Z,16.63
2019-03-18T09:39:23.837Z,7.73
2019-03-18T09:41:53.819Z,16.17
2019-03-18T09:44:23.913Z,28.07
2019-03-18T09:46:54.254Z,12.83
2019-03-18T09:49:24.167Z,11.33
2019-03-18T09:51:54.160Z,12.83
2019-03-18T09:54:24.486Z,13.40
2019-03-18T09:56:54.474Z,27.60
2019-03-18T09:59:24.628Z,18.77
2019-03-18T10:01:54.988Z,28.10
2019-03-18T10:04:25.043Z,16.00
2019-03-18T10:06:55.017Z,10.53
2019-03-18T10:09:25.666Z,7.90
2019-03-18T10:11:55.605Z,18.23
2019-03-18T10:14:25.671Z,11.93
2019-03-18T10:16:55.709Z,15.27
2019-03-18T10:19:33.377Z,6.53
2019-03-18T10:21:57.306Z,21.83
2019-03-18T10:24:27.275Z,17.77
2019-03-18T10:26:57.247Z,32.87
2019-03-18T10:29:27.333Z,15.63
2019-03-18T10:31:57.342Z,10.53
2019-03-18T10:34:27.399Z,22.67
2019-03-18T10:36:57.383Z,13.93
2019-03-18T10:39:27.353Z,11.63
2019-03-18T10:41:57.416Z,30.60
2019-03-18T10:44:27.404Z,21.00
2019-03-18T10:46:57.385Z,29.27
2019-03-18T10:49:27.384Z,6.77
2019-03-18T10:51:57.436Z,21.10
2019-03-18T10:54:31.141Z,7.87
2019-03-18T10:56:59.085Z,10.30
2019-03-18T10:59:29.092Z,20.90
2019-03-18T11:01:59.192Z,12.13
2019-03-18T11:04:29.621Z,12.30
2019-03-18T11:06:59.677Z,13.70
2019-03-18T11:09:29.625Z,14.10
2019-03-18T11:11:59.699Z,16.53
2019-03-18T11:14:29.665Z,16.90
2019-03-18T11:16:59.615Z,6.47
2019-03-18T11:19:29.662Z,16.80
2019-03-18T11:21:59.620Z,23.40
2019-03-18T11:24:29.872Z,13.70
2019-03-18T11:27:00.054Z,33.13
2019-03-18T11:29:30.089Z,23.13
2019-03-18T11:32:00.148Z,12.17
2019-03-18T11:34:30.333Z,13.20
2019-03-18T11:37:00.678Z,9.00
2019-03-18T11:39:30.690Z,11.30
2019-03-18T11:42:00.863Z,15.83
2019-03-18T11:44:31.335Z,21.87
2019-03-18T11:47:01.288Z,21.63
2019-03-18T11:49:39.422Z,20.07
2019-03-18T11:52:03.173Z,11.53
2019-03-18T11:54:33.591Z,11.43
2019-03-18T11:57:04.009Z,16.07
2019-03-18T11:59:34.211Z,16.57
2019-03-18T12:02:04.313Z,15.17
2019-03-18T12:04:34.337Z,26.53
2019-03-18T12:07:04.605Z,22.77
2019-03-18T12:09:34.754Z,17.37
2019-03-18T12:12:04.941Z,19.93
2019-03-18T12:14:35.190Z,26.57
2019-03-18T12:17:05.729Z,14.37
2019-03-18T12:19:35.710Z,14.43
2019-03-18T12:22:05.898Z,12.17
2019-03-18T12:24:35.832Z,23.33
2019-03-18T12:27:05.946Z,15.23
2019-03-18T12:29:36.080Z,31.77
2019-03-18T12:32:06.614Z,19.90
2019-03-18T12:34:36.706Z,15.30
2019-03-18T12:37:06.837Z,19.17
2019-03-18T12:39:36.871Z,7.93
2019-03-18T12:42:06.987Z,17.90
2019-03-18T12:44:37.573Z,13.10
2019-03-18T12:47:08.002Z,10.97
2019-03-18T12:49:38.451Z,17.23
2019-03-18T12:52:08.562Z,12.93
2019-03-18T12:54:38.606Z,11.83
2019-03-18T12:57:08.722Z,10.50
2019-03-18T12:59:38.794Z,25.37
2019-03-18T13:02:09.050Z,30.53
2019-03-18T13:04:39.067Z,19.90
2019-03-18T13:07:09.654Z,17.63
2019-03-18T13:09:39.844Z,17.83
2019-03-18T13:12:13.117Z,14.63
2019-03-18T13:14:42.094Z,18.60
2019-03-18T13:17:12.061Z,16.90
2019-03-18T13:19:42.040Z,11.00
2019-03-18T13:22:13.193Z,19.53
2019-03-18T13:24:43.766Z,15.40
2019-03-18T13:27:14.441Z,11.33
2019-03-18T13:29:44.385Z,12.60
2019-03-18T13:32:15.601Z,9.97
2019-03-18T13:34:46.857Z,16.27
2019-03-18T13:37:17.250Z,10.40
2019-03-18T13:39:48.421Z,20.83
2019-03-18T13:42:19.080Z,8.13
2019-03-18T13:44:50.201Z,28.97
2019-03-18T13:47:20.416Z,12.33
2019-03-18T13:49:50.881Z,11.90
2019-03-18T13:52:20.943Z,6.67
2019-03-18T13:54:52.106Z,15.97
2019-03-18T13:57:23.201Z,15.80
2019-03-18T13:59:53.597Z,11.93
2019-03-18T14:02:24.076Z,21.07
2019-03-18T14:04:54.829Z,17.30
2019-03-18T14:07:25.334Z,17.60
2019-03-18T14:09:56.011Z,12.93
2019-03-18T14:12:26.597Z,11.40
2019-03-18T14:14:57.062Z,16.30
2019-03-18T14:17:27.482Z,19.77
2019-03-18T14:20:00.636Z,16.40
2019-03-18T14:22:31.657Z,12.50
2019-03-18T14:25:02.337Z,20.40
2019-03-18T14:27:33.292Z,20.00
2019-03-18T14:30:03.889Z,10.23
2019-03-18T14:32:34.655Z,12.17
2019-03-18T14:35:06.353Z,12.83
2019-03-18T14:37:36.821Z,19.20
2019-03-18T14:40:08.295Z,11.23
2019-03-18T14:42:38.333Z,6.50
2019-03-18T14:45:11.210Z,12.50
2019-03-18T14:47:41.866Z,31.93
2019-03-18T14:50:12.880Z,27.70
2019-03-18T14:52:43.350Z,28.20
2019-03-18T14:55:14.205Z,25.60
2019-03-18T14:57:44.638Z,11.00
2019-03-18T15:00:19.992Z,14.37
2019-03-18T15:02:50.922Z,13.37
2019-03-18T15:05:21.544Z,14.63
2019-03-18T15:07:51.610Z,20.40
2019-03-18T15:10:22.060Z,8.43
2019-03-18T15:12:52.937Z,8.30
2019-03-18T15:15:23.069Z,15.90
2019-03-18T15:17:53.057Z,11.47
2019-03-18T15:20:23.502Z,13.03
2019-03-18T15:22:53.900Z,13.40
2019-03-18T15:25:24.497Z,11.93
2019-03-18T15:27:54.896Z,21.00
2019-03-18T15:30:25.418Z,11.43
2019-03-18T15:32:55.598Z,6.87
2019-03-18T15:35:26.193Z,11.67
2019-03-18T15:37:56.222Z,13.07
2019-03-18T15:40:26.940Z,13.50
2019-03-18T15:42:57.442Z,19.73
2019-03-18T15:45:28.169Z,10.53
2019-03-18T15:47:59.329Z,12.40
2019-03-18T15:50:30.468Z,10.97
2019-03-18T15:53:01.094Z,12.23
2019-03-18T15:55:31.362Z,6.53
2019-03-18T15:58:01.464Z,13.63
2019-03-18T16:00:31.433Z,14.23
2019-03-18T16:03:01.619Z,12.07
2019-03-18T16:05:31.632Z,15.13
2019-03-18T16:08:01.772Z,15.40
2019-03-18T16:10:32.048Z,22.87
2019-03-18T16:13:03.074Z,12.77
2019-03-18T16:15:33.125Z,19.70
2019-03-18T16:18:03.085Z,21.60
2019-03-18T16:20:33.096Z,19.33
2019-03-18T16:23:03.213Z,18.87
2019-03-18T16:25:33.286Z,13.83
2019-03-18T16:28:03.323Z,17.93
2019-03-18T16:30:33.524Z,15.33
2019-03-18T16:33:03.724Z,10.43
2019-03-18T16:35:33.821Z,15.10
2019-03-18T16:38:04.237Z,15.13
2019-03-18T16:40:34.203Z,10.23
2019-03-18T16:43:04.455Z,20.37
2019-03-18T16:45:35.181Z,13.20
2019-03-18T16:48:05.549Z,19.47
2019-03-18T16:50:35.575Z,14.83
2019-03-18T16:53:05.697Z,16.10
2019-03-18T16:55:35.937Z,16.27
2019-03-18T16:58:06.024Z,12.43
2019-03-18T17:00:37.055Z,23.03
2019-03-18T17:03:07.084Z,27.60
2019-03-18T17:05:37.064Z,23.63
2019-03-18T17:08:07.133Z,17.10
2019-03-18T17:10:37.203Z,13.70
2019-03-18T17:13:07.216Z,12.07
2019-03-18T17:15:37.253Z,17.30
2019-03-18T17:18:07.285Z,11.47
2019-03-18T17:20:37.285Z,15.30
2019-03-18T17:23:07.329Z,8.50
2019-03-18T17:25:37.301Z,12.20
2019-03-18T17:28:07.267Z,27.17
2019-03-18T17:30:37.291Z,19.50
2019-03-18T17:33:07.302Z,12.30
2019-03-18T17:35:37.403Z,13.97
2019-03-18T17:38:07.383Z,25.47
2019-03-18T17:40:37.867Z,17.80
2019-03-18T17:43:07.816Z,11.27
2019-03-18T17:45:37.893Z,12.33
2019-03-18T17:48:08.067Z,7.80
2019-03-18T17:50:38.149Z,9.80
2019-03-18T17:53:08.176Z,16.60
2019-03-18T17:55:38.159Z,18.60
2019-03-18T17:58:08.166Z,14.43
2019-03-18T18:00:44.353Z,30.10
2019-03-18T18:03:14.342Z,10.50
2019-03-18T18:05:44.345Z,5.47
2019-03-18T18:08:14.310Z,21.10
2019-03-18T18:10:44.642Z,31.43
2019-03-18T18:13:14.774Z,6.10
2019-03-18T18:15:44.724Z,9.10
2019-03-18T18:18:14.766Z,11.73
2019-03-18T18:20:44.721Z,9.03
2019-03-18T18:23:15.215Z,8.43
2019-03-18T18:25:45.516Z,8.40
2019-03-18T18:28:16.036Z,9.00
2019-03-18T18:30:45.994Z,6.93
2019-03-18T18:33:16.295Z,4.87
2019-03-18T18:35:46.488Z,6.00
2019-03-18T18:38:16.497Z,13.43
2019-03-18T18:40:46.644Z,6.93
2019-03-18T18:43:17.141Z,11.83
2019-03-18T18:45:47.385Z,6.83
2019-03-18T18:48:17.368Z,7.53
2019-03-18T18:50:50.672Z,11.80
2019-03-18T18:53:26.115Z,10.33
2019-03-18T18:55:52.789Z,13.13
2019-03-18T18:58:22.827Z,12.37
2019-03-18T19:00:53.061Z,7.07
2019-03-18T19:03:23.624Z,11.83
2019-03-18T19:05:54.581Z,7.83
2019-03-18T19:08:25.120Z,12.50
2019-03-18T19:10:56.201Z,38.00
2019-03-18T19:13:26.785Z,30.60
2019-03-18T19:15:58.321Z,27.03
2019-03-18T19:18:37.331Z,32.07
2019-03-18T19:21:01.672Z,35.30
2019-03-18T19:23:37.566Z,38.43
2019-03-18T19:26:05.665Z,61.83
2019-03-18T19:28:35.951Z,184.47
2019-03-18T19:31:07.013Z,71.23
2019-03-18T19:33:38.328Z,92.93
2019-03-18T19:36:08.396Z,62.83
2019-03-18T19:38:38.978Z,93.90
2019-03-18T19:41:09.548Z,62.70
2019-03-18T19:43:40.305Z,53.80
2019-03-18T19:46:11.272Z,60.27
2019-03-18T19:48:41.775Z,24.40
2019-03-18T19:51:12.163Z,18.53
2019-03-18T19:53:49.189Z,19.07
2019-03-18T19:56:14.834Z,29.47
2019-03-18T19:58:45.362Z,10.53
2019-03-18T20:01:16.377Z,21.07
2019-03-18T20:03:47.996Z,25.33
2019-03-18T20:06:18.752Z,17.73
2019-03-18T20:08:48.881Z,32.00
2019-03-18T20:11:20.518Z,15.17
2019-03-18T20:13:51.182Z,20.33
2019-03-18T20:16:23.798Z,17.17
2019-03-18T20:18:54.529Z,33.10
2019-03-18T20:21:25.357Z,33.17
2019-03-18T20:24:01.106Z,27.10
2019-03-18T20:26:30.454Z,22.30
2019-03-18T20:29:01.344Z,8.70
2019-03-18T20:31:32.040Z,33.23
2019-03-18T20:34:02.261Z,17.03
2019-03-18T20:36:34.066Z,8.43
2019-03-18T20:39:07.506Z,9.33
2019-03-18T20:41:38.453Z,9.57
2019-03-18T20:44:09.314Z,21.57
2019-03-18T20:46:40.520Z,17.03
2019-03-18T20:49:12.522Z,11.63
2019-03-18T20:51:43.198Z,20.43
2019-03-18T20:54:13.516Z,16.73
2019-03-18T20:56:43.953Z,5.53
2019-03-18T20:59:17.244Z,7.60
2019-03-18T21:01:48.215Z,11.80
2019-03-18T21:04:20.665Z,33.83
2019-03-18T21:06:51.244Z,31.63
2019-03-18T21:09:21.237Z,17.53
2019-03-18T21:11:52.823Z,22.70
2019-03-18T21:14:23.436Z,33.33
2019-03-18T21:16:54.340Z,6.90
2019-03-18T21:19:25.710Z,19.17
2019-03-18T21:21:57.833Z,6.03
2019-03-18T21:24:28.409Z,6.30
2019-03-18T21:26:59.061Z,7.33
2019-03-18T21:29:29.085Z,4.90
2019-03-18T21:31:59.785Z,9.83
2019-03-18T21:34:30.934Z,15.23
2019-03-18T21:37:01.410Z,6.40
2019-03-18T21:39:33.390Z,24.70
2019-03-18T21:42:06.212Z,8.20
2019-03-18T21:44:37.560Z,8.60
2019-03-18T21:47:08.189Z,24.83
2019-03-18T21:49:38.757Z,10.63
2019-03-18T21:52:08.980Z,4.80
2019-03-18T21:54:39.613Z,8.53
2019-03-18T21:57:10.165Z,9.57
2019-03-18T21:59:41.222Z,8.80
2019-03-18T22:02:11.693Z,11.13
2019-03-18T22:04:49.995Z,23.93
2019-03-18T22:07:21.526Z,21.83
2019-03-18T22:09:53.186Z,7.23
2019-03-18T22:12:24.493Z,4.83
2019-03-18T22:15:01.074Z,15.83
2019-03-18T22:17:32.244Z,17.27
2019-03-18T22:20:08.167Z,10.60
2019-03-18T22:22:38.805Z,41.80
2019-03-18T22:25:09.948Z,29.93
2019-03-18T22:27:40.761Z,14.73
2019-03-18T22:30:11.425Z,8.23
2019-03-18T22:32:42.288Z,7.43
2019-03-18T22:35:14.108Z,17.27
2019-03-18T22:37:45.155Z,46.20
2019-03-18T22:40:15.954Z,20.23
2019-03-18T22:42:46.434Z,12.73
2019-03-18T22:45:17.075Z,23.37
2019-03-18T22:47:47.725Z,15.30
2019-03-18T22:50:19.640Z,8.03
2019-03-18T22:52:49.690Z,35.77
2019-03-18T22:55:19.996Z,19.67
2019-03-18T22:57:50.211Z,13.17
2019-03-18T23:00:48.829Z,28.27
2019-03-18T23:03:19.408Z,14.67
2019-03-18T23:05:50.437Z,22.40
2019-03-18T23:08:20.440Z,37.63
2019-03-18T23:10:50.432Z,33.13
2019-03-18T23:13:20.599Z,14.93
2019-03-18T23:15:57.533Z,10.03
2019-03-18T23:18:30.372Z,30.63
2019-03-18T23:21:01.891Z,29.70
2019-03-18T23:23:32.317Z,39.87
2019-03-18T23:26:02.320Z,31.00
2019-03-18T23:28:32.301Z,17.37
2019-03-18T23:31:03.176Z,27.67
2019-03-18T23:33:33.165Z,34.73
2019-03-18T23:36:03.720Z,28.10
2019-03-18T23:38:33.706Z,29.97
2019-03-18T23:41:04.455Z,8.60
2019-03-18T23:43:34.686Z,8.43
2019-03-18T23:46:05.186Z,9.40
2019-03-18T23:48:35.253Z,12.50
2019-03-18T23:51:05.679Z,13.70
2019-03-18T23:53:35.827Z,13.80
2019-03-18T23:56:05.944Z,7.60
2019-03-18T23:58:36.557Z,14.27
